GUCY

Conakry Airport

Conakry, Guinea
METAR GUCY 242100Z 17010KT 9999 TS BKN015 FEW023CB BKN110 26/25 Q1012 CB/SE-S-SW RERA NOSIG
Observed Flight Rules
Sep-24 @ 21:00 UTC (50 minutes ago) Marginal Visual Flight Rules
Wind Visibility Clouds Conditions
170° at 10 knots 10,000+ meters
  • Broken at 1,500' AGL
  • Few at 2,300' AGL
  • Broken at 11,000' AGL
  • Thunderstorm
Temperatures Readings
Current 26°C / 79°F
Dewpoint 25°C / 77°F
Humidity 94%
Altimeter 29.88" Hg
Pressure 1012 hPa
Elevation 26
METAR GUCY 242100Z 17010KT 9999 TS BKN015 FEW023CB BKN110 26/25 Q1012 CB/SE-S-SW RERA NOSIG
Observed Flight Rules
Sep-24 @ 21:00 UTC
(50 minutes ago)
MVFR
Wind Visibility
170° at 10 knots 10,000+ meters
Clouds
  • Broken at 1,500' AGL
  • Few at 2,300' AGL
  • Broken at 11,000' AGL
Conditions
  • Thunderstorm
Temperature Dewpoint
26°C / 79°F 25°C / 77°F
Humidity Altimeter Pressure
94% 29.88" Hg 1012 hPa